Weather at Pecks Heliport

Public forecast

Using degrees Fahrenheit for public forecast. Weather courtesy of forecast.io.

Closest aviation weather report (METAR) to Pecks Heliport

Closest report is McKinney National Airport, 7.2 nm (13.3 km) W.

2024/05/17 22:53 (retrieved 54 minutes ago)

KTKI 172253Z 31007KT 10SM CLR 28/16 A2974 RMK AO2 SLP069 T02830156

Closest aviation forecast (TAF) to Pecks Heliport

Closest forecast is Dallas Love Field, 28.7 nm (53.1 km) SW.

2024/05/17 21:00 Ammendment (retrieved 3 hours ago)

TAF AMD KDAL 172057Z 1721/1818 28007KT P6SM SCT050 FM180000 20004KT P6SM SCT250